Time;durP1;ratioP1;P1;durP2;ratioP2;P2;SDS_P1;SDS_P2;PMS_P1;PMS_P2;Temp;Humidity;BMP_temperature;BMP_pressure;BME280_temperature;BME280_humidity;BME280_pressure;Samples;Min_cycle;Max_cycle;Signal;HPM_P1;HPM_P2
2021/08/09 00:02:16;;;;;;;15.72;11.15;;;;;;;21.46;85.90;100579.18;1736542;82;20865;-79
2021/08/09 00:04:42;;;;;;;12.80;10.03;;;;;;;21.45;85.96;100582.83;1736064;82;21205;-79
2021/08/09 00:07:11;;;;;;;11.70;10.60;;;;;;;21.41;85.94;100574.34;1736406;82;20858;-78
2021/08/09 00:09:38;;;;;;;11.45;10.38;;;;;;;21.41;85.87;100581.01;1736119;82;20870;-78
2021/08/09 00:12:06;;;;;;;12.20;11.00;;;;;;;21.38;85.84;100581.28;1736226;82;20858;-79
2021/08/09 00:14:33;;;;;;;12.43;11.18;;;;;;;21.37;85.99;100581.47;1736458;82;21331;-78
2021/08/09 00:17:00;;;;;;;13.55;11.65;;;;;;;21.34;86.01;100570.59;1737672;82;21145;-80
2021/08/09 00:19:26;;;;;;;12.07;10.72;;;;;;;21.32;85.95;100562.78;1750073;80;20928;-78
2021/08/09 00:21:54;;;;;;;13.28;10.80;;;;;;;21.30;85.86;100564.77;1750249;82;20932;-79
2021/08/09 00:24:21;;;;;;;11.22;10.20;;;;;;;21.28;85.85;100566.77;1750250;80;21393;-79
2021/08/09 00:26:48;;;;;;;12.20;11.03;;;;;;;21.26;85.93;100558.09;1750274;82;21315;-80
2021/08/09 00:29:15;;;;;;;13.40;10.88;;;;;;;21.25;86.04;100559.58;1750149;82;21134;-79
2021/08/09 00:31:42;;;;;;;13.72;11.05;;;;;;;21.24;86.17;100564.09;1750544;82;20912;-80
2021/08/09 00:34:09;;;;;;;12.33;11.22;;;;;;;21.23;86.18;100557.57;1750225;82;20872;-80
2021/08/09 00:36:36;;;;;;;13.85;10.40;;;;;;;21.22;86.24;100568.75;1750087;80;20959;-79
2021/08/09 00:39:03;;;;;;;11.28;10.13;;;;;;;21.19;86.23;100565.08;1750249;81;20921;-79
2021/08/09 00:41:32;;;;;;;13.05;9.88;;;;;;;21.19;86.20;100573.08;1750109;82;21365;-80
2021/08/09 00:43:59;;;;;;;12.53;11.43;;;;;;;21.18;86.30;100571.91;1750060;82;20924;-78
2021/08/09 00:46:29;;;;;;;12.07;10.90;;;;;;;21.15;86.49;100569.57;1750068;80;21378;-79
2021/08/09 00:48:56;;;;;;;11.40;10.25;;;;;;;21.14;86.60;100571.89;1750055;80;20885;-79
2021/08/09 00:51:24;;;;;;;13.93;10.30;;;;;;;21.13;86.55;100572.39;1750185;80;20927;-79
2021/08/09 00:53:53;;;;;;;13.03;11.63;;;;;;;21.10;86.46;100572.22;1750176;80;21941;-80
2021/08/09 00:56:20;;;;;;;11.55;10.35;;;;;;;21.08;86.58;100569.38;1722642;82;20916;-79
2021/08/09 00:58:47;;;;;;;11.97;10.70;;;;;;;21.06;86.65;100563.38;1750218;82;20861;-79
2021/08/09 01:01:14;;;;;;;11.30;10.30;;;;;;;21.05;86.57;100564.36;1722752;82;21398;-78
2021/08/09 01:03:44;;;;;;;13.43;10.70;;;;;;;21.03;86.60;100563.20;1749995;82;20928;-78
2021/08/09 01:06:12;;;;;;;11.90;10.80;;;;;;;21.02;86.72;100561.52;1750270;82;22152;-78
2021/08/09 01:08:58;;;;;;;14.20;9.85;;;;;;;21.00;86.88;100562.17;1750372;82;20884;-78
2021/08/09 01:11:37;;;;;;;;;;;;;;;21.00;86.96;100556.02;1753285;82;21402;-78
2021/08/09 01:14:26;;;;;;;14.13;10.98;;;;;;;21.00;86.98;100558.68;1750109;82;20094;-78
2021/08/09 01:16:56;;;;;;;11.30;10.32;;;;;;;20.97;86.90;100563.84;1750481;82;20912;-79
2021/08/09 01:19:42;;;;;;;12.85;9.88;;;;;;;20.96;87.05;100564.83;1750296;82;21144;-79
2021/08/09 01:22:40;;;;;;;13.60;10.45;;;;;;;20.95;87.11;100567.16;1749997;82;20951;-78
2021/08/09 01:25:34;;;;;;;11.38;10.43;;;;;;;20.96;87.22;100574.66;1750144;80;20940;-78
2021/08/09 01:28:01;;;;;;;11.38;10.38;;;;;;;20.96;87.33;100559.48;1750523;82;22043;-78
2021/08/09 01:30:29;;;;;;;12.63;10.70;;;;;;;20.97;87.34;100561.69;1750280;80;20889;-78
2021/08/09 01:32:56;;;;;;;13.68;10.18;;;;;;;20.97;87.26;100561.17;1750509;82;21091;-78
2021/08/09 01:35:24;;;;;;;11.30;10.28;;;;;;;20.98;87.29;100564.16;1750140;82;20936;-78
2021/08/09 01:37:55;;;;;;;12.82;10.25;;;;;;;20.99;87.11;100568.52;1723239;82;20983;-78
2021/08/09 01:40:24;;;;;;;14.75;10.43;;;;;;;21.00;87.04;100563.51;1750593;82;20959;-78
2021/08/09 01:42:50;;;;;;;16.40;10.70;;;;;;;21.01;86.93;100557.67;1750819;80;21043;-78
2021/08/09 01:45:20;;;;;;;11.05;10.03;;;;;;;21.00;86.82;100554.17;1750169;80;21142;-79
2021/08/09 01:47:48;;;;;;;10.82;9.60;;;;;;;21.00;86.76;100550.17;1750120;82;20924;-79
2021/08/09 01:50:17;;;;;;;11.55;10.55;;;;;;;21.00;86.84;100554.68;1750120;82;20880;-78
2021/08/09 01:52:45;;;;;;;10.78;9.95;;;;;;;21.00;86.83;100551.52;1750451;82;20924;-78
2021/08/09 01:55:15;;;;;;;11.75;10.45;;;;;;;21.01;86.90;100557.67;1750213;80;21426;-77
2021/08/09 01:57:43;;;;;;;10.72;9.65;;;;;;;21.01;86.86;100555.86;1749999;81;21129;-78
2021/08/09 02:00:14;;;;;;;10.78;9.80;;;;;;;21.01;86.78;100559.86;1750279;82;20991;-79
2021/08/09 02:02:42;;;;;;;11.95;9.20;;;;;;;21.00;86.64;100562.68;1750547;82;20900;-80
2021/08/09 02:05:14;;;;;;;11.70;10.18;;;;;;;21.00;86.59;100560.02;1750122;80;20999;-78
2021/08/09 02:07:45;;;;;;;10.13;9.13;;;;;;;21.00;86.53;100565.34;1722788;82;21480;-78
2021/08/09 02:10:15;;;;;;;10.68;9.13;;;;;;;20.98;86.46;100569.50;1750218;82;21139;-79
2021/08/09 02:13:05;;;;;;;10.58;9.58;;;;;;;20.98;86.51;100571.33;1747307;80;20971;-78
2021/08/09 02:15:50;;;;;;;10.63;9.60;;;;;;;20.97;86.61;100568.34;1750340;82;20892;-79
2021/08/09 02:19:03;;;;;;;10.72;8.85;;;;;;;20.97;86.45;100565.68;1727342;81;20861;-80
2021/08/09 02:21:33;;;;;;;11.40;9.70;;;;;;;20.95;86.50;100568.50;1758181;81;21002;-79
2021/08/09 02:24:05;;;;;;;10.50;9.50;;;;;;;20.95;86.50;100563.16;1757985;81;21811;-78
2021/08/09 02:26:36;;;;;;;11.35;10.23;;;;;;;20.96;86.47;100567.99;1758188;81;21449;-79
2021/08/09 02:29:12;;;;;;;11.45;10.28;;;;;;;20.95;86.16;100567.16;1757955;80;20884;-81
2021/08/09 02:31:42;;;;;;;10.20;9.25;;;;;;;20.94;86.10;100566.81;1758256;81;21007;-79
2021/08/09 02:34:10;;;;;;;10.78;9.53;;;;;;;20.94;85.95;100569.48;1757954;80;20880;-79
2021/08/09 02:36:38;;;;;;;10.53;9.50;;;;;;;20.93;86.05;100578.48;1758293;81;21072;-80
2021/08/09 02:39:04;;;;;;;11.18;10.08;;;;;;;20.93;86.04;100574.98;1730285;81;21387;-78
2021/08/09 02:41:32;;;;;;;10.65;8.93;;;;;;;20.92;86.03;100570.16;1758190;80;20900;-80
2021/08/09 02:43:59;;;;;;;10.40;9.50;;;;;;;20.91;85.99;100579.97;1758027;81;21514;-80
2021/08/09 02:46:26;;;;;;;15.25;8.73;;;;;;;20.91;85.89;100572.47;1758318;81;20920;-80
2021/08/09 02:48:53;;;;;;;10.43;9.33;;;;;;;20.90;85.94;100574.82;1757897;80;21947;-80
2021/08/09 02:51:20;;;;;;;11.12;9.48;;;;;;;20.90;85.93;100577.48;1758218;80;21011;-81
2021/08/09 02:53:48;;;;;;;9.40;8.50;;;;;;;20.91;85.94;100581.30;1757893;81;21441;-81
2021/08/09 02:56:15;;;;;;;10.40;9.30;;;;;;;20.92;85.93;100584.83;1758222;81;20931;-81
2021/08/09 02:58:44;;;;;;;10.88;9.98;;;;;;;20.96;85.85;100589.32;1758001;81;20853;-80
2021/08/09 03:01:11;;;;;;;9.00;8.10;;;;;;;20.98;85.65;100590.00;1758163;81;21106;-80
2021/08/09 03:03:39;;;;;;;11.20;10.05;;;;;;;21.00;85.58;100596.01;1730487;81;20951;-78
2021/08/09 03:06:06;;;;;;;9.80;9.03;;;;;;;21.01;85.46;100591.00;1758055;80;20923;-79
2021/08/09 03:08:33;;;;;;;10.98;9.88;;;;;;;21.00;85.13;100591.50;1757999;81;20928;-79
2021/08/09 03:11:00;;;;;;;10.88;9.80;;;;;;;21.02;85.06;100590.84;1757909;80;20975;-79
2021/08/09 03:13:27;;;;;;;11.00;9.90;;;;;;;21.01;85.16;100583.00;1758020;81;21506;-79
2021/08/09 03:15:55;;;;;;;11.55;10.30;;;;;;;21.01;85.11;100584.33;1758136;80;20880;-78
2021/08/09 03:18:21;;;;;;;13.45;9.55;;;;;;;21.04;85.01;100589.36;1751537;81;20964;-79
2021/08/09 03:20:50;;;;;;;10.35;9.48;;;;;;;21.04;84.84;100584.86;1736154;82;20964;-79
2021/08/09 03:23:16;;;;;;;10.75;9.88;;;;;;;21.05;84.71;100580.35;1736230;82;21410;-79
2021/08/09 03:25:45;;;;;;;11.15;10.15;;;;;;;21.05;84.62;100577.69;1736209;82;20912;-79
2021/08/09 03:28:12;;;;;;;16.23;9.18;;;;;;;21.05;84.77;100581.18;1736473;82;20972;-79
2021/08/09 03:30:39;;;;;;;10.25;9.25;;;;;;;21.05;84.61;100578.52;1736149;82;20861;-79
2021/08/09 03:33:07;;;;;;;11.08;9.98;;;;;;;21.07;84.64;100585.03;1736149;81;20949;-79
2021/08/09 03:35:36;;;;;;;12.13;9.78;;;;;;;21.07;84.83;100589.03;1736476;82;20905;-78
2021/08/09 03:38:03;;;;;;;11.97;10.53;;;;;;;21.09;84.71;100591.87;1736162;82;21489;-78
2021/08/09 03:40:29;;;;;;;10.72;9.63;;;;;;;21.10;84.59;100593.55;1735995;81;21449;-79
2021/08/09 03:42:58;;;;;;;10.70;9.60;;;;;;;21.14;84.72;100587.38;1736245;82;20933;-79
2021/08/09 03:45:25;;;;;;;11.33;10.15;;;;;;;21.18;84.71;100584.73;1736196;82;20893;-78
2021/08/09 03:47:51;;;;;;;10.82;9.68;;;;;;;21.21;84.67;100583.09;1736208;82;21505;-78
2021/08/09 03:50:18;;;;;;;11.65;10.23;;;;;;;21.26;84.64;100579.94;1736129;82;21770;-78
2021/08/09 03:52:54;;;;;;;11.85;10.65;;;;;;;21.31;84.57;100580.27;1736111;82;20885;-78
2021/08/09 03:55:22;;;;;;;11.08;9.98;;;;;;;21.37;84.18;100588.14;1736115;82;21426;-78
2021/08/09 03:57:49;;;;;;;10.43;9.53;;;;;;;21.39;84.02;100582.97;1736031;82;20893;-78
2021/08/09 04:00:19;;;;;;;12.18;10.45;;;;;;;21.43;83.89;100583.02;1736226;82;21345;-77
2021/08/09 04:02:47;;;;;;;12.45;10.78;;;;;;;21.49;83.85;100578.84;1714088;82;21136;-78
2021/08/09 04:05:15;;;;;;;11.55;10.53;;;;;;;21.57;83.65;100576.19;1735663;82;20885;-76
2021/08/09 04:07:43;;;;;;;16.73;11.57;;;;;;;21.63;83.46;100571.53;1736243;82;20953;-78
2021/08/09 04:10:10;;;;;;;11.10;10.00;;;;;;;21.70;83.36;100575.72;1736306;82;21522;-78
2021/08/09 04:12:37;;;;;;;10.93;9.83;;;;;;;21.77;83.15;100574.55;1736082;82;20948;-78
2021/08/09 04:15:07;;;;;;;12.88;10.45;;;;;;;21.83;82.94;100581.39;1736156;82;21375;-79
2021/08/09 04:17:35;;;;;;;15.23;11.65;;;;;;;21.90;82.65;100578.38;1735996;82;20972;-79
2021/08/09 04:20:04;;;;;;;12.53;10.50;;;;;;;22.00;82.37;100574.70;1736091;81;20889;-80
2021/08/09 04:22:30;;;;;;;11.28;10.05;;;;;;;22.10;82.03;100573.53;1736209;82;20995;-79
2021/08/09 04:24:57;;;;;;;13.18;11.95;;;;;;;22.21;81.69;100575.03;1715381;82;20938;-79
2021/08/09 04:27:25;;;;;;;11.53;10.43;;;;;;;22.29;81.48;100567.02;1738203;82;21543;-77
2021/08/09 04:29:52;;;;;;;13.93;12.47;;;;;;;22.43;81.13;100564.14;1738966;82;20932;-78
2021/08/09 04:32:20;;;;;;;15.93;12.43;;;;;;;22.58;80.67;100566.95;1739748;82;20918;-78
2021/08/09 04:34:49;;;;;;;12.95;11.43;;;;;;;22.82;79.95;100579.91;1738905;82;20924;-78
2021/08/09 04:37:17;;;;;;;11.93;10.72;;;;;;;23.11;79.06;100581.98;1736325;82;20952;-78
2021/08/09 04:39:45;;;;;;;13.10;10.25;;;;;;;23.48;77.83;100585.28;1736305;81;21151;-77
2021/08/09 04:42:12;;;;;;;13.32;12.13;;;;;;;23.88;76.67;100586.52;1736801;81;21469;-78
2021/08/09 04:44:40;;;;;;;13.83;11.95;;;;;;;24.23;75.09;100579.67;1736473;82;20850;-79
2021/08/09 04:47:08;;;;;;;12.40;10.63;;;;;;;24.46;73.71;100580.97;1736487;82;20995;-78
2021/08/09 04:49:36;;;;;;;12.43;11.12;;;;;;;24.58;72.76;100569.30;1736279;81;20893;-78
2021/08/09 04:52:03;;;;;;;12.35;11.15;;;;;;;24.72;72.15;100570.30;1736414;82;21162;-77
2021/08/09 04:54:31;;;;;;;13.60;11.33;;;;;;;24.80;71.22;100568.36;1736298;81;20853;-78
2021/08/09 04:56:59;;;;;;;14.55;11.48;;;;;;;24.90;70.77;100571.25;1736883;82;20921;-77
2021/08/09 04:59:27;;;;;;;12.07;10.28;;;;;;;24.98;70.45;100569.30;1737591;82;20862;-78
2021/08/09 05:01:55;;;;;;;15.53;11.12;;;;;;;25.15;70.14;100571.78;1736839;81;20881;-77
2021/08/09 05:04:22;;;;;;;12.88;11.50;;;;;;;25.33;69.46;100570.88;1736801;82;21082;-78
2021/08/09 05:06:50;;;;;;;12.88;11.53;;;;;;;25.55;69.19;100571.73;1736338;82;20979;-77
2021/08/09 05:09:17;;;;;;;11.95;10.28;;;;;;;25.88;67.98;100565.87;1736585;82;20885;-79
2021/08/09 05:11:45;;;;;;;10.85;9.80;;;;;;;26.28;67.15;100568.00;1736264;82;20936;-77
2021/08/09 05:14:13;;;;;;;14.35;10.30;;;;;;;26.65;66.13;100567.64;1736575;82;21004;-77
2021/08/09 05:16:41;;;;;;;14.85;9.65;;;;;;;27.05;64.69;100567.00;1736451;82;21119;-77
2021/08/09 05:19:10;;;;;;;10.23;9.20;;;;;;;27.44;63.06;100562.27;1736296;82;21423;-77
2021/08/09 05:21:37;;;;;;;10.03;9.08;;;;;;;27.84;61.83;100566.39;1736164;82;21612;-77
2021/08/09 05:24:05;;;;;;;15.08;9.60;;;;;;;28.22;60.80;100556.30;1736407;82;20960;-80
2021/08/09 05:26:32;;;;;;;15.23;9.45;;;;;;;28.57;59.85;100550.66;1736298;82;20932;-78
2021/08/09 05:28:59;;;;;;;9.98;9.00;;;;;;;28.91;58.87;100556.23;1736417;82;21496;-77
2021/08/09 05:31:27;;;;;;;10.55;9.55;;;;;;;29.23;57.60;100559.52;1736228;82;21473;-79
2021/08/09 05:33:58;;;;;;;11.50;9.50;;;;;;;29.52;56.47;100554.86;1736217;82;20957;-78
2021/08/09 05:36:25;;;;;;;11.08;9.90;;;;;;;29.78;55.79;100552.23;1736365;82;20952;-78
2021/08/09 05:38:52;;;;;;;11.60;9.80;;;;;;;30.02;54.99;100540.57;1736461;82;20972;-79
2021/08/09 05:41:19;;;;;;;11.53;9.58;;;;;;;30.28;54.32;100546.78;1736191;81;21121;-79
2021/08/09 05:43:46;;;;;;;12.40;10.13;;;;;;;30.51;53.86;100552.91;1736520;82;20969;-79
2021/08/09 05:46:14;;;;;;;13.78;9.78;;;;;;;30.79;53.15;100549.64;1736254;82;20889;-78
2021/08/09 05:48:43;;;;;;;14.33;9.70;;;;;;;31.07;52.22;100561.29;1736280;81;20972;-78
2021/08/09 05:51:10;;;;;;;12.47;9.93;;;;;;;31.32;51.40;100561.14;1736336;81;20889;-77
2021/08/09 05:53:38;;;;;;;11.68;9.88;;;;;;;31.55;50.83;100570.42;1736241;81;21026;-77
2021/08/09 05:56:06;;;;;;;13.70;9.90;;;;;;;31.71;50.35;100573.84;1736409;81;20878;-79
2021/08/09 05:58:36;;;;;;;14.95;9.48;;;;;;;31.92;49.82;100574.33;1734566;81;21395;-78
2021/08/09 06:01:04;;;;;;;10.98;9.53;;;;;;;32.15;49.26;100574.89;1736179;81;21402;-78
2021/08/09 06:03:32;;;;;;;10.00;9.00;;;;;;;32.38;48.40;100567.28;1715654;82;20988;-78
2021/08/09 06:06:00;;;;;;;11.95;9.78;;;;;;;32.61;47.69;100569.97;1736167;82;21587;-80
2021/08/09 06:08:29;;;;;;;16.32;9.70;;;;;;;32.77;47.35;100573.86;1736012;82;20885;-79
2021/08/09 06:10:59;;;;;;;10.80;9.70;;;;;;;32.92;47.30;100573.86;1736441;82;20916;-80
2021/08/09 06:13:26;;;;;;;11.90;9.90;;;;;;;33.16;46.94;100572.73;1736352;81;20885;-77
2021/08/09 06:15:55;;;;;;;13.60;11.10;;;;;;;33.39;46.40;100573.14;1736403;82;20925;-79
2021/08/09 06:18:23;;;;;;;16.95;10.53;;;;;;;33.55;46.07;100574.77;1736306;81;21536;-77
2021/08/09 06:20:52;;;;;;;10.20;9.30;;;;;;;33.72;45.71;100574.82;1736062;81;20976;-77
2021/08/09 06:23:19;;;;;;;14.13;10.63;;;;;;;33.88;45.23;100579.42;1736517;82;20885;-76
2021/08/09 06:25:46;;;;;;;11.35;10.18;;;;;;;34.06;45.01;100577.83;1737317;81;20889;-75
2021/08/09 06:28:13;;;;;;;12.88;11.10;;;;;;;34.14;43.29;100579.31;1736245;81;20979;-76
2021/08/09 06:30:40;;;;;;;12.47;10.10;;;;;;;33.96;43.64;100579.02;1736208;81;21900;-76
2021/08/09 06:33:07;;;;;;;15.40;13.90;;;;;;;34.09;43.89;100583.84;1736291;82;20920;-78
2021/08/09 06:35:34;;;;;;;12.33;9.48;;;;;;;34.35;43.88;100582.33;1736808;82;20901;-78
2021/08/09 06:38:05;;;;;;;12.05;10.35;;;;;;;34.53;43.86;100577.12;1736347;81;20968;-78
2021/08/09 06:40:33;;;;;;;13.08;11.18;;;;;;;34.65;43.31;100573.78;1736589;82;21067;-78
2021/08/09 06:43:03;;;;;;;14.15;10.18;;;;;;;34.78;42.52;100576.13;1736464;82;21530;-78
2021/08/09 06:45:32;;;;;;;13.25;10.68;;;;;;;34.92;41.50;100573.01;1736200;82;20929;-79
2021/08/09 06:47:59;;;;;;;16.27;11.57;;;;;;;34.87;41.86;100571.86;1736352;82;20909;-79
2021/08/09 06:50:26;;;;;;;12.58;9.50;;;;;;;34.92;41.89;100567.01;1736212;82;20861;-79
2021/08/09 06:52:53;;;;;;;16.27;10.25;;;;;;;35.03;41.67;100570.67;1736522;81;21430;-78
2021/08/09 06:55:20;;;;;;;15.55;11.28;;;;;;;35.21;41.37;100571.70;1736337;82;21520;-78
2021/08/09 06:57:47;;;;;;;14.73;11.28;;;;;;;35.42;41.43;100571.93;1736173;81;20935;-79
2021/08/09 07:00:14;;;;;;;14.58;11.45;;;;;;;35.62;40.64;100569.41;1736451;82;21489;-78
2021/08/09 07:02:42;;;;;;;11.38;10.40;;;;;;;35.70;40.15;100568.09;1736238;81;21469;-78
2021/08/09 07:05:09;;;;;;;14.93;11.43;;;;;;;35.75;39.90;100565.94;1736360;81;20850;-77
2021/08/09 07:07:38;;;;;;;16.70;10.63;;;;;;;35.69;39.86;100561.81;1715346;82;21163;-77
2021/08/09 07:10:06;;;;;;;11.55;9.65;;;;;;;35.71;40.14;100558.84;1736142;82;20921;-77
2021/08/09 07:12:37;;;;;;;12.00;10.50;;;;;;;35.90;39.81;100557.86;1736390;81;20885;-77
2021/08/09 07:15:06;;;;;;;16.02;11.80;;;;;;;36.06;40.23;100559.63;1736165;82;20960;-78
2021/08/09 07:17:43;;;;;;;18.27;11.05;;;;;;;36.19;39.24;100563.81;1736262;82;20920;-77
2021/08/09 07:20:14;;;;;;;14.40;10.85;;;;;;;36.25;39.32;100565.49;1736238;81;21652;-78
2021/08/09 07:22:43;;;;;;;18.23;10.05;;;;;;;36.37;39.22;100560.36;1736430;81;20968;-77
2021/08/09 07:25:11;;;;;;;11.65;10.38;;;;;;;36.55;38.92;100563.17;1736229;81;20889;-76
2021/08/09 07:27:38;;;;;;;12.37;9.93;;;;;;;36.71;39.00;100554.81;1736336;81;20925;-77
2021/08/09 07:30:09;;;;;;;15.18;11.28;;;;;;;36.90;38.47;100557.05;1736126;81;20925;-77
2021/08/09 07:32:36;;;;;;;13.58;10.63;;;;;;;37.06;38.01;100553.23;1713595;82;21012;-82
2021/08/09 07:35:04;;;;;;;16.17;11.57;;;;;;;37.00;37.63;100554.34;1736344;82;20984;-79
2021/08/09 07:37:31;;;;;;;18.42;10.18;;;;;;;37.01;38.37;100558.71;1736369;82;21046;-82
2021/08/09 07:40:00;;;;;;;15.68;11.10;;;;;;;37.11;38.31;100562.87;1736035;81;21596;-80
2021/08/09 07:42:27;;;;;;;14.05;10.60;;;;;;;37.23;37.45;100563.16;1736393;81;20869;-80
2021/08/09 07:44:56;;;;;;;16.30;10.35;;;;;;;37.31;37.86;100563.45;1736124;82;21386;-79
2021/08/09 07:47:23;;;;;;;16.80;9.75;;;;;;;37.45;37.39;100569.75;1736465;81;20928;-78
2021/08/09 07:49:51;;;;;;;19.67;10.58;;;;;;;37.57;37.17;100573.61;1736272;82;20968;-79
2021/08/09 07:52:17;;;;;;;11.85;9.68;;;;;;;37.74;36.91;100570.87;1736323;82;21399;-78
2021/08/09 07:54:45;;;;;;;13.95;9.80;;;;;;;37.87;36.61;100573.59;1736173;82;20889;-79
2021/08/09 07:57:14;;;;;;;15.32;9.38;;;;;;;37.99;37.15;100575.22;1736446;82;21454;-80
2021/08/09 07:59:42;;;;;;;19.52;10.15;;;;;;;38.09;36.50;100577.98;1735998;82;21417;-78
2021/08/09 08:02:09;;;;;;;15.95;9.60;;;;;;;37.97;35.01;100578.78;1736453;81;20996;-80
2021/08/09 08:04:36;;;;;;;13.08;9.55;;;;;;;37.61;35.89;100574.71;1736100;82;20953;-79
2021/08/09 08:07:04;;;;;;;14.45;9.20;;;;;;;37.53;36.83;100572.77;1737064;82;21386;-81
2021/08/09 08:09:32;;;;;;;14.73;9.60;;;;;;;37.64;37.03;100572.26;1736689;82;21426;-80
2021/08/09 08:12:01;;;;;;;14.60;10.35;;;;;;;37.86;36.71;100575.23;1736487;82;21539;-80
2021/08/09 08:14:30;;;;;;;15.28;10.15;;;;;;;38.03;35.83;100572.24;1735999;81;20921;-78
2021/08/09 08:16:59;;;;;;;13.50;10.10;;;;;;;38.09;35.66;100571.95;1735994;81;21347;-79
2021/08/09 08:19:27;;;;;;;15.78;8.33;;;;;;;38.07;35.78;100575.52;1736070;81;20924;-80
2021/08/09 08:21:54;;;;;;;20.35;9.00;;;;;;;38.11;35.92;100576.61;1736111;82;21083;-79
2021/08/09 08:24:22;;;;;;;16.27;8.48;;;;;;;38.26;35.27;100575.73;1735940;82;20964;-78
2021/08/09 08:26:49;;;;;;;15.35;9.78;;;;;;;38.29;34.73;100580.67;1736148;82;21402;-72
2021/08/09 08:29:16;;;;;;;12.68;8.98;;;;;;;38.25;35.19;100582.32;1736251;82;20925;-76
2021/08/09 08:31:43;;;;;;;15.00;9.85;;;;;;;38.15;35.52;100584.55;1736134;82;21370;-72
2021/08/09 08:35:13;;;;;;;19.05;8.88;;;;;;;37.95;34.79;100582.63;1798198;79;24400;-72
2021/08/09 08:37:40;;;;;;;12.18;9.35;;;;;;;37.88;35.44;100586.73;1758322;80;21346;-76
2021/08/09 08:40:08;;;;;;;16.07;9.48;;;;;;;38.02;35.76;100589.75;1758227;81;21191;-73
2021/08/09 08:42:39;;;;;;;14.38;9.55;;;;;;;38.16;35.04;100592.20;1724765;83;21061;-73
2021/08/09 08:45:08;;;;;;;13.15;8.85;;;;;;;38.31;35.06;100588.59;1724875;83;21369;-74
2021/08/09 08:47:36;;;;;;;11.40;9.45;;;;;;;38.47;34.84;100592.13;1724686;83;20978;-74
2021/08/09 08:50:04;;;;;;;12.90;8.50;;;;;;;38.56;33.57;100589.11;1724749;83;20959;-73
2021/08/09 08:52:30;;;;;;;12.75;9.05;;;;;;;38.64;34.75;100584.39;1724719;83;21572;-73
2021/08/09 08:54:58;;;;;;;12.53;8.68;;;;;;;38.78;34.62;100590.11;1724778;81;20969;-73
2021/08/09 08:57:25;;;;;;;12.82;8.35;;;;;;;38.93;34.05;100590.06;1724771;83;21472;-72
2021/08/09 08:59:51;;;;;;;13.25;8.50;;;;;;;39.03;34.26;100587.80;1724799;83;20868;-73
2021/08/09 09:02:38;;;;;;;14.70;8.68;;;;;;;39.15;34.06;100592.94;1720137;81;20923;-72
2021/08/09 09:05:12;;;;;;;13.18;9.08;;;;;;;39.29;34.10;100599.44;1724789;82;21098;-73
2021/08/09 09:07:41;;;;;;;16.93;8.48;;;;;;;39.32;33.16;100596.67;1724656;83;20918;-74
2021/08/09 09:10:23;;;;;;;14.07;8.08;;;;;;;39.25;33.64;100594.81;1724709;82;20915;-72
2021/08/09 09:13:15;;;;;;;16.15;8.38;;;;;;;39.22;33.57;100594.83;1724861;81;20971;-72
2021/08/09 09:16:05;;;;;;;13.20;8.35;;;;;;;39.22;33.87;100595.36;1724847;83;20943;-73
2021/08/09 09:18:46;;;;;;;20.95;8.35;;;;;;;39.32;33.61;100589.81;1724733;83;21610;-73
2021/08/09 09:21:35;;;;;;;12.85;8.18;;;;;;;39.40;32.89;100587.88;1724837;82;21013;-74
2021/08/09 09:24:14;;;;;;;12.03;7.40;;;;;;;39.45;33.43;100586.45;1724721;83;20871;-73
2021/08/09 09:26:44;;;;;;;14.38;8.98;;;;;;;39.54;33.26;100590.78;1724924;83;20867;-73
2021/08/09 09:29:16;;;;;;;17.70;8.95;;;;;;;39.59;33.43;100582.49;1724445;81;20915;-72
2021/08/09 09:31:45;;;;;;;19.70;7.95;;;;;;;39.60;33.04;100585.52;1724682;81;21223;-74
2021/08/09 09:34:14;;;;;;;13.15;8.13;;;;;;;39.61;32.50;100584.40;1717298;83;20975;-74
2021/08/09 09:36:57;;;;;;;12.23;8.98;;;;;;;39.68;33.02;100586.81;1709323;83;20964;-73
2021/08/09 09:39:38;;;;;;;12.82;8.33;;;;;;;39.79;32.84;100580.93;1709308;84;21018;-71
2021/08/09 09:42:09;;;;;;;13.32;7.83;;;;;;;39.93;32.05;100578.91;1709585;84;20884;-72
2021/08/09 09:44:39;;;;;;;21.70;8.58;;;;;;;40.06;32.74;100580.16;1709318;83;21145;-73
2021/08/09 09:47:32;;;;;;;15.58;9.33;;;;;;;40.06;31.95;100579.60;1708987;82;20877;-73
2021/08/09 09:49:59;;;;;;;13.83;7.70;;;;;;;39.98;31.68;100573.39;1708947;84;20948;-72
2021/08/09 09:52:39;;;;;;;12.28;6.95;;;;;;;39.99;31.96;100571.70;1709023;84;20908;-72
2021/08/09 09:55:12;;;;;;;15.72;8.20;;;;;;;40.07;32.27;100570.83;1708875;84;20943;-73
2021/08/09 09:57:40;;;;;;;12.80;7.33;;;;;;;40.11;31.12;100578.20;1708811;84;21168;-73
2021/08/09 10:00:12;;;;;;;15.93;8.50;;;;;;;39.83;31.51;100572.97;1708740;84;20963;-74
2021/08/09 10:02:45;;;;;;;14.38;8.98;;;;;;;39.71;31.85;100566.47;1708861;82;21039;-74
2021/08/09 10:05:13;;;;;;;11.33;8.00;;;;;;;39.65;32.80;100573.11;1708853;84;20981;-74
2021/08/09 10:07:41;;;;;;;15.48;8.48;;;;;;;39.68;32.63;100569.78;1708900;83;20935;-76
2021/08/09 10:10:09;;;;;;;16.35;7.05;;;;;;;39.77;33.10;100576.84;1708801;84;21829;-73
2021/08/09 10:12:39;;;;;;;11.03;6.53;;;;;;;39.83;32.43;100572.97;1708790;84;20937;-74
2021/08/09 10:15:08;;;;;;;13.43;6.95;;;;;;;39.90;32.83;100572.64;1708754;84;20984;-76
2021/08/09 10:17:37;;;;;;;17.70;7.22;;;;;;;39.99;32.63;100576.39;1708788;84;20991;-75
2021/08/09 10:20:09;;;;;;;10.50;8.58;;;;;;;40.06;32.46;100576.85;1709172;84;20916;-73
2021/08/09 10:22:36;;;;;;;15.75;6.95;;;;;;;40.14;31.77;100570.73;1709049;84;21836;-73
2021/08/09 10:25:03;;;;;;;14.90;7.75;;;;;;;40.25;31.54;100570.06;1709006;83;20960;-72
2021/08/09 10:27:51;;;;;;;15.65;7.67;;;;;;;40.28;31.45;100568.13;1708995;84;20928;-72
2021/08/09 10:30:23;;;;;;;11.68;6.72;;;;;;;40.36;31.31;100565.30;1709339;82;20896;-73
2021/08/09 10:32:52;;;;;;;;;;;;;;;40.46;30.83;100568.47;1711413;84;20888;-77
2021/08/09 10:35:40;;;;;;;10.80;6.35;;;;;;;40.48;30.65;100564.31;1695463;84;21140;-76
2021/08/09 10:38:26;;;;;;;21.90;7.12;;;;;;;40.37;30.62;100568.30;1708717;83;21520;-75
2021/08/09 10:41:09;;;;;;;12.20;6.50;;;;;;;40.37;31.07;100563.61;1682086;84;21024;-76
2021/08/09 10:43:40;;;;;;;14.60;7.12;;;;;;;40.41;31.23;100576.23;1708751;84;20944;-76
2021/08/09 10:46:39;;;;;;;13.32;6.53;;;;;;;40.37;31.21;100570.48;1708844;83;20981;-75
2021/08/09 10:49:06;;;;;;;15.18;6.83;;;;;;;40.33;31.28;100564.50;1708577;84;21147;-75
2021/08/09 10:51:57;;;;;;;18.67;6.75;;;;;;;40.33;31.19;100565.34;1704062;83;21031;-76
2021/08/09 10:54:29;;;;;;;10.13;6.65;;;;;;;40.34;30.57;100566.97;1708602;84;20992;-76
2021/08/09 10:56:58;;;;;;;16.73;7.03;;;;;;;40.20;31.80;100564.64;1708937;84;20965;-76
2021/08/09 10:59:49;;;;;;;10.85;6.60;;;;;;;40.12;32.25;100572.14;1708877;83;20924;-75
2021/08/09 11:02:20;;;;;;;13.10;6.25;;;;;;;39.98;32.67;100565.96;1709094;83;21116;-77
2021/08/09 11:05:21;;;;;;;12.43;6.53;;;;;;;39.97;32.50;100571.17;1708786;84;20921;-75
2021/08/09 11:07:48;;;;;;;12.30;6.30;;;;;;;39.97;32.50;100571.17;1708840;84;21008;-76
2021/08/09 11:10:38;;;;;;;11.73;6.12;;;;;;;39.93;32.46;100570.14;1658684;84;20925;-75
2021/08/09 11:13:06;;;;;;;12.55;7.72;;;;;;;39.94;32.46;100569.02;1685714;84;21564;-77
2021/08/09 11:15:34;;;;;;;15.35;7.35;;;;;;;39.99;31.56;100559.34;1708701;83;21559;-75
2021/08/09 11:18:00;;;;;;;12.65;6.35;;;;;;;40.01;31.30;100561.81;1657929;84;20926;-75
2021/08/09 11:20:32;;;;;;;12.30;6.97;;;;;;;39.99;30.71;100566.21;1708800;83;20944;-75
2021/08/09 11:23:10;;;;;;;10.28;6.35;;;;;;;39.92;30.83;100555.31;1708915;83;21387;-76
2021/08/09 11:25:44;;;;;;;11.78;6.05;;;;;;;39.85;30.82;100563.89;1708611;84;20912;-77
2021/08/09 11:28:25;;;;;;;10.35;6.17;;;;;;;39.43;31.38;100559.84;1708836;84;21558;-76
2021/08/09 11:31:03;;;;;;;16.87;7.30;;;;;;;39.13;31.04;100555.36;1709946;84;20905;-75